Time;durP1;ratioP1;P1;durP2;ratioP2;P2;SDS_P1;SDS_P2;PMS_P1;PMS_P2;Temp;Humidity;BMP_temperature;BMP_pressure;BME280_temperature;BME280_humidity;BME280_pressure;Samples;Min_cycle;Max_cycle;Signal;HPM_P1;HPM_P2
2022/12/10 00:01:24;;;;;;;18.90;13.02;;;-1.60;99.90;;;-1.82;100.00;100398.91;5049804;28;20202;-72
2022/12/10 00:06:51;;;;;;;13.27;7.75;;;-1.60;99.90;;;-1.84;100.00;100397.38;5036601;28;20211;-72
2022/12/10 00:09:29;;;;;;;22.90;10.73;;;-1.60;99.90;;;-1.75;100.00;100396.56;5035899;28;20252;-73
2022/12/10 00:12:09;;;;;;;15.93;9.70;;;-1.60;99.90;;;-1.81;100.00;100397.94;5024042;28;20216;-72
2022/12/10 00:14:41;;;;;;;13.95;7.07;;;-1.60;99.90;;;-1.82;100.00;100398.06;5012520;28;20194;-70
2022/12/10 00:17:12;;;;;;;13.27;8.18;;;-1.70;99.90;;;-1.91;100.00;100401.53;5011532;28;20214;-71
2022/12/10 00:19:46;;;;;;;18.02;9.02;;;-1.70;99.90;;;-1.86;100.00;100396.66;5020583;28;20247;-71
2022/12/10 00:22:33;;;;;;;17.00;8.18;;;-1.60;99.90;;;-1.83;100.00;100399.03;5034545;28;20215;-71
2022/12/10 00:25:15;;;;;;;17.33;10.10;;;-1.60;99.90;;;-1.83;100.00;100399.03;5033861;28;20235;-72
2022/12/10 00:27:47;;;;;;;17.65;8.93;;;-1.60;99.90;;;-1.91;100.00;100401.53;5019357;28;20209;-72
2022/12/10 00:30:19;;;;;;;23.05;10.13;;;-1.70;99.90;;;-1.83;100.00;100397.22;4979564;28;20706;-71
2022/12/10 00:32:49;;;;;;;16.63;10.32;;;-1.60;99.90;;;-1.88;100.00;100391.47;5012473;28;20198;-72
2022/12/10 00:35:22;;;;;;;22.55;10.85;;;-1.60;99.90;;;-1.73;100.00;100393.75;4994963;28;20199;-72
2022/12/10 00:40:59;;;;;;;16.45;9.18;;;-1.60;99.90;;;-1.81;100.00;100403.25;5026086;28;20209;-71
2022/12/10 00:43:35;;;;;;;13.70;9.10;;;-1.60;99.90;;;-1.87;100.00;100405.59;5035914;28;20194;-71
2022/12/10 00:46:17;;;;;;;16.90;7.93;;;-1.60;99.90;;;-1.82;100.00;100400.72;5032318;28;20198;-70
2022/12/10 00:49:01;;;;;;;16.63;8.00;;;-1.60;99.90;;;-1.84;100.00;100408.78;5034542;28;20269;-71
2022/12/10 00:51:45;;;;;;;12.73;7.78;;;-1.60;99.90;;;-1.86;100.00;100417.88;5030620;28;20194;-71
2022/12/10 00:54:23;;;;;;;12.27;6.00;;;-1.60;99.90;;;-1.83;100.00;100420.25;5020922;28;20206;-71
2022/12/10 00:57:11;;;;;;;16.75;6.85;;;-1.60;99.90;;;-1.88;100.00;100407.41;5030868;28;20198;-72
2022/12/10 00:59:47;;;;;;;14.23;7.55;;;-1.60;99.90;;;-1.88;100.00;100414.50;5014189;28;20396;-73
2022/12/10 01:02:32;;;;;;;13.90;7.60;;;-1.60;99.90;;;-1.96;100.00;100409.03;5017342;28;20202;-72
2022/12/10 01:05:05;;;;;;;15.60;9.95;;;-1.70;99.90;;;-1.99;100.00;100404.88;5019063;28;20279;-71
2022/12/10 01:07:37;;;;;;;21.40;8.68;;;-1.70;99.90;;;-1.93;100.00;100409.59;5028163;28;20198;-71
2022/12/10 01:10:11;;;;;;;19.42;8.30;;;-1.70;99.90;;;-1.74;100.00;100408.81;5041389;28;20248;-71
2022/12/10 01:12:50;;;;;;;12.82;6.97;;;-1.60;99.90;;;-1.92;100.00;100415.75;5033942;28;20197;-72
2022/12/10 01:15:21;;;;;;;17.73;8.35;;;-1.70;99.90;;;-1.87;100.00;100414.38;5041170;28;20237;-72
2022/12/10 01:18:07;;;;;;;15.05;7.28;;;-1.60;99.90;;;-1.82;100.00;100416.63;5033797;28;20692;-73
2022/12/10 01:20:52;;;;;;;15.52;10.13;;;-1.60;99.90;;;-1.86;100.00;100415.22;5029269;28;20201;-72
2022/12/10 01:23:27;;;;;;;15.85;7.93;;;-1.60;99.90;;;-2.00;100.00;100418.25;5050862;28;20272;-72
2022/12/10 01:26:05;;;;;;;12.77;8.30;;;-1.70;99.90;;;-1.80;100.00;100422.66;5021667;28;20296;-71
2022/12/10 01:28:43;;;;;;;21.05;9.63;;;-1.60;99.90;;;-1.87;100.00;100413.53;5014496;28;20233;-71
2022/12/10 01:31:26;;;;;;;13.80;7.93;;;-1.60;99.90;;;-2.01;100.00;100412.09;5012949;28;20198;-70
2022/12/10 01:34:14;;;;;;;13.98;9.10;;;-1.70;99.90;;;-2.11;100.00;100419.16;5031550;28;20763;-71
2022/12/10 01:36:56;;;;;;;10.95;6.47;;;-1.80;99.90;;;-2.12;100.00;100414.00;5028992;28;20208;-72
2022/12/10 01:39:41;;;;;;;11.48;6.90;;;-1.80;99.90;;;-2.13;100.00;100415.78;5014178;28;20260;-71
2022/12/10 01:42:19;;;;;;;14.07;7.40;;;-1.80;99.90;;;-2.20;100.00;100412.00;5017402;28;20208;-71
2022/12/10 01:45:22;;;;;;;21.23;9.60;;;-1.90;99.90;;;-2.21;100.00;100415.63;5013401;28;20276;-72
2022/12/10 01:47:55;;;;;;;16.42;8.82;;;-1.90;99.90;;;-2.32;100.00;100413.91;4995564;28;20198;-71
2022/12/10 01:50:35;;;;;;;14.15;10.05;;;-2.00;99.90;;;-2.28;100.00;100414.50;5016679;28;20697;-71
2022/12/10 01:53:11;;;;;;;11.15;9.45;;;-2.00;99.90;;;-2.29;100.00;100418.94;5012909;28;20186;-71
2022/12/10 01:55:56;;;;;;;13.93;7.93;;;-2.00;99.90;;;-2.32;100.00;100416.53;5028102;28;20197;-70
2022/12/10 01:58:28;;;;;;;15.70;7.95;;;-2.00;99.90;;;-2.34;100.00;100415.84;5008944;28;20215;-70
2022/12/10 02:01:13;;;;;;;9.73;6.63;;;-2.10;99.90;;;-2.51;100.00;100416.44;4993134;28;20201;-71
2022/12/10 02:04:16;;;;;;;15.65;10.02;;;-2.10;99.90;;;-2.40;100.00;100405.78;5022811;28;20237;-71
2022/12/10 02:07:02;;;;;;;14.45;7.45;;;-2.10;99.90;;;-2.33;100.00;100406.09;5044412;28;20285;-71
2022/12/10 02:09:40;;;;;;;12.98;7.03;;;-2.10;99.90;;;-2.52;100.00;100406.84;5018165;28;20704;-71
2022/12/10 02:12:26;;;;;;;15.43;8.25;;;-2.20;99.90;;;-2.60;100.00;100403.97;5032268;28;20665;-70
2022/12/10 02:15:28;;;;;;;21.50;8.52;;;-2.20;99.90;;;-2.71;100.00;100406.72;4993211;28;20290;-71
2022/12/10 02:18:12;;;;;;;17.05;8.38;;;-2.30;99.90;;;-2.60;100.00;100398.69;5012709;28;20309;-72
2022/12/10 02:20:54;;;;;;;19.45;7.50;;;-2.30;99.90;;;-2.69;100.00;100405.59;5012461;28;20205;-71
2022/12/10 02:23:36;;;;;;;13.00;7.65;;;-2.30;99.90;;;-2.63;100.00;100399.78;4964428;28;20206;-71
2022/12/10 02:26:22;;;;;;;19.40;9.65;;;-2.30;99.90;;;-2.61;100.00;100402.28;5022230;28;20202;-70
2022/12/10 02:29:42;;;;;;;15.48;7.85;;;-2.30;99.90;;;-2.52;100.00;100396.25;5028036;28;20214;-72
2022/12/10 02:32:27;;;;;;;22.13;7.45;;;-2.30;99.90;;;-2.61;100.00;100399.66;5015034;28;20201;-71
2022/12/10 02:35:18;;;;;;;14.98;7.03;;;-2.30;99.90;;;-2.45;100.00;100397.38;5032132;28;20197;-71
2022/12/10 02:38:01;;;;;;;12.20;8.00;;;-2.20;99.90;;;-2.54;100.00;100397.31;4994165;28;20199;-72
2022/12/10 02:40:45;;;;;;;13.15;7.70;;;-2.30;99.90;;;-2.48;100.00;100402.09;5029325;28;20193;-71
2022/12/10 02:43:23;;;;;;;16.15;10.05;;;-2.30;99.90;;;-2.59;100.00;100408.31;5012121;28;20204;-73
2022/12/10 02:46:13;;;;;;;18.05;11.25;;;-2.20;99.90;;;-2.59;100.00;100404.81;5021909;28;20316;-72
2022/12/10 02:48:52;;;;;;;16.83;10.38;;;-2.30;99.90;;;-2.65;100.00;100400.88;5024595;28;20705;-70
2022/12/10 02:51:35;;;;;;;15.95;8.65;;;-2.30;99.90;;;-2.17;100.00;100395.00;5022159;28;20272;-71
2022/12/10 02:54:43;;;;;;;19.40;10.63;;;-2.00;99.90;;;-2.20;100.00;100396.13;5008898;28;20606;-72
2022/12/10 02:57:43;;;;;;;17.85;9.35;;;-1.90;99.90;;;-2.43;100.00;100403.41;5011897;28;20260;-71
2022/12/10 03:00:22;;;;;;;16.10;9.43;;;-2.10;99.90;;;-2.46;100.00;100401.00;5011907;28;20584;-72
2022/12/10 03:03:41;;;;;;;14.23;8.07;;;-2.10;99.90;;;-2.49;100.00;100401.25;5031425;28;20539;-72
2022/12/10 03:06:29;;;;;;;17.23;8.68;;;-2.20;99.90;;;-2.49;100.00;100406.56;4996081;28;20203;-72
2022/12/10 03:09:16;;;;;;;12.73;8.32;;;-2.20;99.90;;;-2.42;100.00;100412.19;4992809;28;20218;-74
2022/12/10 03:12:04;;;;;;;11.60;7.47;;;-2.20;99.90;;;-2.18;100.00;100404.78;5008941;28;20598;-71
2022/12/10 03:17:38;;;;;;;19.58;8.15;;;-2.10;99.90;;;-2.47;100.00;100407.25;5011013;28;20216;-73
2022/12/10 03:20:31;;;;;;;17.90;8.57;;;-2.10;99.90;;;-2.22;100.00;100420.09;5043832;22;20663;-77
2022/12/10 03:23:02;;;;;;;14.70;7.65;;;-2.10;99.90;;;-2.30;100.00;100411.97;5033366;28;20243;-78
2022/12/10 03:25:33;;;;;;;17.40;7.63;;;-2.00;99.90;;;-2.34;100.00;100410.56;5036857;28;20264;-77
2022/12/10 03:28:02;;;;;;;15.23;9.68;;;-2.00;99.90;;;-2.44;100.00;100399.06;5032406;28;20253;-77
2022/12/10 03:30:36;;;;;;;20.80;7.63;;;-2.10;99.90;;;-2.50;100.00;100410.19;5032642;28;20213;-78
2022/12/10 03:33:06;;;;;;;16.15;10.18;;;-2.20;99.90;;;-2.42;100.00;100398.94;5033800;28;20213;-78
2022/12/10 03:35:38;;;;;;;16.70;7.60;;;-2.10;99.90;;;-2.40;100.00;100405.78;5033738;28;20182;-78
2022/12/10 03:38:08;;;;;;;13.93;8.40;;;-2.10;99.90;;;-2.44;100.00;100404.38;5033834;28;20459;-78
2022/12/10 03:40:37;;;;;;;16.90;8.85;;;-2.10;99.90;;;-2.35;100.00;100402.72;5032898;28;20185;-77
2022/12/10 03:43:06;;;;;;;11.63;7.72;;;-2.10;99.90;;;-2.41;100.00;100404.09;5033194;28;20236;-77
2022/12/10 03:45:35;;;;;;;23.20;10.43;;;-2.10;99.90;;;-2.25;100.00;100399.16;5031663;28;20196;-77
2022/12/10 03:48:05;;;;;;;11.75;8.43;;;-2.00;99.90;;;-2.17;100.00;100392.34;5032321;28;20205;-78
2022/12/10 03:50:34;;;;;;;17.42;8.82;;;-1.90;99.90;;;-2.21;100.00;100400.56;5032956;28;20213;-77
2022/12/10 03:53:04;;;;;;;15.93;8.27;;;-1.90;99.90;;;-2.20;100.00;100399.59;5037527;28;20236;-78
2022/12/10 03:55:33;;;;;;;14.85;8.52;;;-1.90;99.90;;;-2.17;100.00;100400.28;5041517;28;20213;-78
2022/12/10 03:58:02;;;;;;;17.70;10.43;;;-1.90;99.90;;;-1.85;100.00;100406.31;5048902;28;20234;-77
2022/12/10 04:00:31;;;;;;;17.20;9.82;;;-1.70;99.90;;;-1.87;100.00;100410.88;5040231;28;20173;-78
2022/12/10 04:03:00;;;;;;;15.25;8.50;;;-1.70;99.90;;;-1.86;100.00;100409.91;5037906;28;20209;-78
2022/12/10 04:05:29;;;;;;;20.65;10.70;;;-1.70;99.90;;;-1.87;100.00;100410.88;5034591;28;20239;-78
2022/12/10 04:07:58;;;;;;;20.92;10.68;;;-1.70;99.90;;;-2.02;100.00;100407.75;5035867;28;20637;-78
2022/12/10 04:10:30;;;;;;;16.27;10.63;;;-1.70;99.90;;;-2.02;100.00;100406.91;5035793;28;20189;-77
2022/12/10 04:18:31;;;;;;;15.40;8.82;;;-1.40;99.90;;;-1.73;100.00;100407.84;5036780;28;20232;-78
2022/12/10 04:26:53;;;;;;;19.13;9.00;;;-1.40;99.90;;;-1.66;100.00;100406.34;5033975;28;20209;-77
2022/12/10 04:29:24;;;;;;;15.95;9.38;;;-1.40;99.90;;;-1.78;100.00;100412.72;5035887;28;20193;-78
2022/12/10 04:31:54;;;;;;;18.13;9.88;;;-1.50;99.90;;;-1.66;100.00;100400.22;5037274;28;20232;-78
2022/12/10 04:34:24;;;;;;;22.90;10.23;;;-1.50;99.90;;;-1.40;100.00;100401.34;5035962;28;20200;-78
2022/12/10 04:36:54;;;;;;;15.45;8.32;;;-1.30;99.90;;;-1.45;100.00;100399.13;5033906;28;20174;-77
2022/12/10 04:39:23;;;;;;;19.38;10.43;;;-1.30;99.90;;;-1.61;99.33;100404.13;5033827;28;20660;-77
2022/12/10 04:41:54;;;;;;;20.20;10.10;;;-1.30;99.90;;;-1.54;100.00;100404.41;5034861;28;20245;-77
2022/12/10 04:44:23;;;;;;;18.30;10.00;;;-1.30;99.90;;;-1.63;99.55;100406.06;5036141;28;20251;-78
2022/12/10 04:46:52;;;;;;;14.40;7.47;;;-1.40;99.90;;;-1.53;99.63;100412.25;5037651;28;20212;-78
2022/12/10 04:49:21;;;;;;;16.02;10.18;;;-1.30;99.90;;;-1.62;100.00;100418.38;5035967;28;20251;-78
2022/12/10 04:51:50;;;;;;;15.23;10.30;;;-1.40;99.90;;;-1.45;100.00;100415.03;5036654;28;20209;-77
2022/12/10 04:54:20;;;;;;;26.75;10.32;;;-1.30;99.90;;;-1.29;100.00;100409.22;5034756;28;20268;-77
2022/12/10 04:56:49;;;;;;;17.70;9.90;;;-1.20;99.90;;;-1.42;99.30;100412.13;5035483;28;20181;-78
2022/12/10 04:59:20;;;;;;;22.98;12.68;;;-1.20;99.90;;;-1.50;99.46;100411.16;5034777;28;20190;-78
2022/12/10 05:01:49;;;;;;;15.10;8.98;;;-1.20;99.90;;;-1.41;99.03;100407.66;5035690;28;20288;-79
2022/12/10 05:04:20;;;;;;;16.65;10.05;;;-1.20;99.90;;;-1.32;99.52;100413.00;5033993;28;20251;-79
2022/12/10 05:06:50;;;;;;;16.13;10.02;;;-1.10;99.90;;;-1.35;98.55;100415.06;5036822;28;20559;-79
2022/12/10 05:09:19;;;;;;;19.63;10.50;;;-1.10;99.90;;;-1.27;98.23;100407.25;5038138;28;20205;-78
2022/12/10 05:11:49;;;;;;;13.75;7.78;;;-1.10;99.90;;;-1.39;98.12;100409.19;5035169;28;20274;-77
2022/12/10 05:14:19;;;;;;;19.85;10.00;;;-1.10;99.90;;;-1.06;98.18;100413.28;5052153;28;20614;-78
2022/12/10 05:16:51;;;;;;;17.33;9.85;;;-1.00;99.90;;;-1.20;96.51;100420.81;5040327;28;20181;-77
2022/12/10 05:19:22;;;;;;;18.83;10.00;;;-1.00;99.90;;;-1.17;95.82;100424.03;5038006;28;20186;-78
2022/12/10 05:24:38;;;;;;;17.85;9.82;;;-1.00;99.90;;;-1.31;95.67;100430.56;5034175;28;20189;-78
2022/12/10 05:27:07;;;;;;;16.60;8.63;;;-1.10;99.90;;;-1.28;95.62;100425.97;5035225;28;20209;-78
2022/12/10 05:29:37;;;;;;;13.82;8.80;;;-1.00;99.90;;;-1.32;95.20;100428.91;5034815;28;20188;-78
2022/12/10 05:32:06;;;;;;;13.57;8.02;;;-1.00;99.90;;;-1.36;94.73;100419.56;5035829;28;20850;-77
2022/12/10 05:34:35;;;;;;;13.48;8.25;;;-1.10;99.90;;;-1.38;93.83;100424.16;5035627;28;20255;-78
2022/12/10 05:37:04;;;;;;;15.50;9.57;;;-1.10;99.90;;;-1.37;93.64;100431.16;5041528;28;20249;-78
2022/12/10 05:39:33;;;;;;;16.08;8.52;;;-1.10;99.90;;;-1.39;94.68;100425.13;5043766;28;20189;-78
2022/12/10 05:42:03;;;;;;;12.55;9.05;;;-1.10;99.90;;;-1.32;93.96;100428.91;5046713;28;20213;-77
2022/12/10 05:44:31;;;;;;;11.27;7.38;;;-1.10;99.90;;;-1.31;93.37;100430.56;5040414;28;20170;-77
2022/12/10 05:47:02;;;;;;;18.33;12.27;;;-1.10;99.90;;;-1.28;92.04;100432.13;5040619;28;20196;-77
2022/12/10 05:49:31;;;;;;;22.80;10.55;;;-1.10;97.20;;;-1.37;92.31;100425.84;5036389;28;20213;-75
2022/12/10 05:52:00;;;;;;;22.17;11.23;;;-1.10;77.30;;;-1.39;92.68;100425.13;5021530;28;20221;-77
2022/12/10 05:54:29;;;;;;;13.88;10.15;;;-1.10;81.80;;;-1.43;93.03;100433.50;5021807;28;20188;-77
2022/12/10 05:56:58;;;;;;;17.23;8.48;;;-1.20;74.00;;;-1.36;92.44;100430.16;5036530;28;20695;-76
2022/12/10 05:59:27;;;;;;;13.50;9.23;;;-1.20;99.90;;;-1.39;92.18;100433.06;5037969;28;20197;-78
2022/12/10 06:01:56;;;;;;;14.73;7.13;;;-1.10;54.50;;;-1.36;92.16;100438.13;5036935;28;20209;-78
2022/12/10 06:04:27;;;;;;;11.93;7.45;;;-1.20;56.30;;;-1.16;91.86;100438.16;5034748;28;20185;-78
2022/12/10 06:06:56;;;;;;;15.07;8.77;;;-1.10;81.70;;;-1.19;91.41;100430.47;5035541;28;20248;-77
2022/12/10 06:09:25;;;;;;;15.15;7.00;;;-1.00;35.60;;;-1.35;91.34;100442.44;5037869;28;20189;-78
2022/12/10 06:11:54;;;;;;;10.82;7.72;;;-1.10;29.70;;;-1.32;91.47;100446.66;5035351;28;20220;-78
2022/12/10 06:14:23;;;;;;;10.07;7.88;;;-1.10;38.90;;;-1.17;92.20;100436.47;5036055;28;20213;-78
2022/12/10 06:16:52;;;;;;;12.85;7.82;;;-1.00;75.60;;;-1.32;91.93;100436.03;5035383;28;20665;-77
2022/12/10 06:19:21;;;;;;;17.80;7.25;;;-1.10;46.70;;;-1.19;91.31;100433.09;5033613;28;20283;-77
2022/12/10 06:21:51;;;;;;;19.13;8.38;;;-1.00;34.80;;;-1.27;90.97;100438.28;5034131;28;20201;-78
2022/12/10 06:24:20;;;;;;;13.77;8.05;;;-1.00;12.70;;;-1.35;90.68;100444.25;5035365;28;20193;-78
2022/12/10 06:26:49;;;;;;;14.90;9.32;;;-1.10;1.80;;;-1.36;90.47;100434.63;5032627;28;20288;-78
2022/12/10 06:29:24;;;;;;;14.05;7.32;;;-1.10;5.90;;;-1.47;91.30;100437.41;5033401;28;20275;-78
2022/12/10 06:31:53;;;;;;;15.35;8.10;;;-1.20;16.00;;;-1.45;92.40;100441.59;5034969;28;20217;-78
2022/12/10 06:34:23;;;;;;;13.80;6.90;;;-1.20;44.30;;;-1.45;91.82;100457.50;5033503;28;20166;-77
2022/12/10 06:36:54;;;;;;;14.45;7.68;;;-1.20;45.80;;;-1.41;91.22;100455.44;5033718;28;20197;-78
2022/12/10 06:39:23;;;;;;;14.25;8.02;;;-1.20;45.60;;;-1.49;91.82;100457.91;5034619;28;20204;-77
2022/12/10 06:41:52;;;;;;;11.77;7.45;;;-1.30;41.40;;;-1.48;91.65;100451.63;5033971;28;20248;-77
2022/12/10 06:44:26;;;;;;;13.90;7.32;;;-1.30;52.50;;;-1.44;91.17;100459.19;5034884;28;20173;-78
2022/12/10 06:46:56;;;;;;;11.32;6.90;;;-1.20;62.70;;;-1.47;91.78;100455.97;5033279;28;20185;-77
2022/12/10 06:49:25;;;;;;;12.65;8.93;;;-1.20;57.70;;;-1.45;91.88;100461.97;5033971;28;20224;-79
2022/12/10 06:51:55;;;;;;;16.52;8.68;;;-1.20;42.80;;;-1.50;91.78;100465.03;5037555;28;20239;-78
2022/12/10 06:54:24;;;;;;;12.43;6.40;;;-1.20;37.10;;;-1.42;90.68;100459.91;5035132;28;20282;-77
2022/12/10 06:56:53;;;;;;;12.57;7.32;;;-1.20;33.40;;;-1.42;91.36;100465.22;5036674;28;20213;-79
2022/12/10 06:59:22;;;;;;;11.70;6.65;;;-1.20;25.10;;;-1.46;91.44;100479.72;5038720;28;20216;-77
2022/12/10 07:01:51;;;;;;;10.57;6.43;;;-1.20;21.60;;;-1.48;91.13;100472.88;5039179;28;20209;-77
2022/12/10 07:04:47;;;;;;;10.35;6.53;;;-1.30;25.10;;;-1.54;91.42;100484.00;5041724;28;20680;-78
2022/12/10 07:07:17;;;;;;;15.60;7.82;;;-1.30;25.50;;;-1.54;91.29;100476.91;5040632;28;20173;-77
2022/12/10 07:09:46;;;;;;;16.20;8.63;;;-1.30;26.40;;;-1.61;91.65;100482.88;5051509;28;20216;-78
2022/12/10 07:12:15;;;;;;;9.80;7.25;;;-1.40;41.20;;;-1.49;91.26;100477.34;5051970;28;20223;-78
2022/12/10 07:14:44;;;;;;;9.10;6.50;;;-1.30;52.80;;;-1.49;90.91;100484.44;5054724;28;20197;-78
2022/12/10 07:17:13;;;;;;;15.25;8.68;;;-1.30;40.40;;;-1.58;90.72;100486.09;5054273;28;20208;-76
2022/12/10 07:19:42;;;;;;;10.10;7.68;;;-1.30;20.40;;;-1.52;91.61;100487.38;5055350;28;20185;-78
2022/12/10 07:22:13;;;;;;;9.52;5.40;;;-1.30;35.30;;;-1.46;90.36;100484.19;5056679;28;20198;-78
2022/12/10 07:24:44;;;;;;;8.00;5.95;;;-1.30;10.00;;;-1.53;90.33;100481.22;5056614;28;20399;-79
2022/12/10 07:27:13;;;;;;;12.80;8.02;;;-1.30;7.50;;;-1.58;90.61;100480.81;5056142;28;20253;-79
2022/12/10 07:29:42;;;;;;;33.35;24.77;;;-1.30;11.40;;;-1.41;90.35;100482.81;5059698;28;20185;-78
2022/12/10 07:32:12;;;;;;;34.25;18.52;;;-1.30;24.20;;;-1.57;90.26;100482.47;5058547;28;20209;-78
2022/12/10 07:34:41;;;;;;;11.60;7.45;;;-1.30;1.00;;;-1.44;90.85;100490.19;5039522;28;20725;-78
2022/12/10 07:37:10;;;;;;;12.63;9.35;;;-1.20;24.80;;;-1.46;90.87;100493.00;5037670;28;20288;-78
2022/12/10 07:39:39;;;;;;;19.00;8.75;;;-1.30;10.40;;;-1.43;91.19;100497.19;5035819;28;20284;-78
2022/12/10 07:42:09;;;;;;;15.65;10.40;;;-1.30;14.40;;;-1.29;89.66;100502.13;5038675;28;20209;-79
2022/12/10 07:44:39;;;;;;;11.38;7.70;;;-1.20;10.70;;;-1.27;89.95;100502.00;5038630;28;20178;-77
2022/12/10 07:47:13;;;;;;;11.30;7.25;;;-1.10;2.00;;;-1.43;89.78;100500.69;5037671;28;20205;-77
2022/12/10 07:49:42;;;;;;;14.88;11.40;;;-1.20;1.00;;;-1.44;90.56;100504.31;5036059;28;20193;-78
2022/12/10 07:52:11;;;;;;;27.73;19.05;;;-1.20;1.00;;;-1.37;90.43;100513.44;5041889;28;20715;-79
2022/12/10 07:54:40;;;;;;;10.35;7.57;;;-1.20;16.50;;;-1.31;89.96;100506.75;5038442;28;20185;-77
2022/12/10 07:57:11;;;;;;;11.00;6.63;;;-1.10;14.20;;;-1.29;90.35;100511.88;5038217;28;20193;-77
2022/12/10 07:59:40;;;;;;;11.35;8.05;;;-1.10;10.00;;;-1.43;89.93;100513.94;5039662;28;20189;-76
2022/12/10 08:02:10;;;;;;;12.73;8.50;;;-1.20;1.00;;;-1.36;89.41;100509.81;5041074;28;20206;-77
2022/12/10 08:04:39;;;;;;;12.05;9.27;;;-1.20;1.00;;;-1.39;90.14;100512.69;5039251;28;20193;-76
2022/12/10 08:07:08;;;;;;;12.13;7.25;;;-1.20;1.00;;;-1.33;89.93;100516.63;5040515;28;20193;-78
2022/12/10 08:09:37;;;;;;;16.67;8.85;;;-1.10;1.80;;;-1.32;90.25;100521.81;5040356;28;20377;-78
2022/12/10 08:12:07;;;;;;;11.43;7.68;;;-1.10;13.90;;;-1.11;89.93;100515.56;5037091;28;20660;-78
2022/12/10 08:14:37;;;;;;;15.50;8.23;;;-1.00;14.00;;;-0.96;88.99;100522.16;5037676;28;20186;-79
2022/12/10 08:17:06;;;;;;;15.18;11.55;;;-0.90;1.90;;;-0.89;88.63;100524.16;5038245;28;20169;-80
2022/12/10 08:19:35;;;;;;;13.63;9.52;;;-0.80;1.00;;;-1.15;88.44;100522.13;5037747;28;20204;-78
2022/12/10 08:22:04;;;;;;;14.82;8.05;;;-0.90;1.00;;;-1.24;89.43;100523.78;5038294;28;20205;-77
2022/12/10 08:24:33;;;;;;;11.75;7.85;;;-1.00;1.00;;;-1.19;89.24;100520.72;5039495;28;20192;-78
2022/12/10 08:27:02;;;;;;;13.48;7.28;;;-1.00;1.00;;;-1.14;89.19;100523.81;5039456;28;20213;-78
2022/12/10 08:29:32;;;;;;;10.80;7.35;;;-0.90;1.00;;;-1.12;89.92;100527.19;5038761;28;20200;-78
2022/12/10 08:32:02;;;;;;;12.20;8.45;;;-0.90;1.00;;;-1.04;89.04;100536.16;5041580;28;20213;-77
2022/12/10 08:34:31;;;;;;;11.70;6.80;;;-0.90;1.00;;;-0.99;89.52;100533.06;5044765;28;20216;-79
2022/12/10 08:37:00;;;;;;;11.85;9.02;;;-0.80;1.00;;;-1.01;88.54;100535.84;5046560;28;20220;-76
2022/12/10 08:39:30;;;;;;;11.88;8.32;;;-0.80;1.00;;;-1.17;88.92;100534.72;5041281;28;20268;-79
2022/12/10 08:41:59;;;;;;;11.85;8.70;;;-0.80;1.00;;;-1.17;88.77;100530.25;5039914;28;20205;-78
2022/12/10 08:44:37;;;;;;;16.15;9.93;;;-0.90;1.00;;;-1.13;89.18;100530.81;5038976;28;20204;-81
2022/12/10 08:47:33;;;;;;;13.20;10.95;;;-0.90;1.00;;;-1.08;89.39;100533.91;5038580;28;20279;-77
2022/12/10 08:50:03;;;;;;;13.40;8.43;;;-0.90;1.00;;;-0.97;89.15;100531.13;5038069;28;20225;-77
2022/12/10 08:52:32;;;;;;;10.73;8.48;;;-0.90;1.00;;;-0.90;89.03;100542.88;5038060;28;20205;-77
2022/12/10 08:55:01;;;;;;;10.52;9.02;;;-0.80;1.00;;;-0.92;88.16;100544.84;5037980;28;20192;-78
2022/12/10 08:57:30;;;;;;;10.07;7.03;;;-0.80;1.00;;;-1.16;88.51;100547.03;5038048;28;20693;-77
2022/12/10 09:00:00;;;;;;;14.65;8.90;;;-0.90;1.00;;;-1.09;89.29;100549.00;5038226;28;20182;-77
2022/12/10 09:02:34;;;;;;;15.00;8.52;;;-0.90;1.00;;;-0.99;88.79;100554.31;5062269;22;20277;-73
2022/12/10 09:05:05;;;;;;;9.73;8.18;;;-0.90;1.00;;;-0.92;88.41;100544.84;5062160;28;20193;-73
2022/12/10 09:07:34;;;;;;;15.50;7.20;;;-0.80;1.00;;;-0.72;87.55;100546.53;5065671;28;20207;-73
2022/12/10 09:10:04;;;;;;;12.07;9.32;;;-0.70;1.00;;;-0.75;87.02;100552.13;5066112;28;20246;-72
2022/12/10 09:12:34;;;;;;;16.55;9.90;;;-0.60;1.00;;;-0.78;87.89;100557.72;5063621;28;20247;-72
2022/12/10 09:15:04;;;;;;;14.45;9.57;;;-0.60;1.00;;;-0.74;86.86;100553.81;5057086;28;20231;-73
2022/12/10 09:17:38;;;;;;;11.20;7.30;;;-0.60;1.00;;;-0.91;87.66;100555.31;5072943;22;20522;-79
2022/12/10 09:20:08;;;;;;;12.68;9.13;;;-0.70;1.00;;;-0.67;87.75;100554.91;5057464;28;20203;-80
2022/12/10 09:22:38;;;;;;;9.27;7.82;;;-0.60;1.00;;;-0.50;86.70;100556.06;5058229;28;20687;-79
2022/12/10 09:25:09;;;;;;;13.00;9.20;;;-0.40;1.00;;;-0.52;86.54;100558.84;5057915;28;20184;-79
2022/12/10 09:27:45;;;;;;;13.00;8.77;;;-0.40;1.00;;;-0.76;86.84;100561.06;5057354;28;20183;-79
2022/12/10 09:30:16;;;;;;;7.57;6.22;;;-0.50;1.00;;;-0.66;87.19;100561.94;5058407;28;20173;-80
2022/12/10 09:32:54;;;;;;;13.32;9.68;;;-0.50;1.00;;;-0.86;86.86;100554.91;5060666;28;20601;-79
2022/12/10 09:35:23;;;;;;;13.40;9.73;;;-0.60;1.00;;;-0.72;86.93;100559.81;5064601;28;20671;-79
2022/12/10 09:37:56;;;;;;;11.95;8.60;;;-0.50;1.00;;;-0.60;88.19;100566.69;5060787;28;20188;-79
2022/12/10 09:40:40;;;;;;;10.82;8.63;;;-0.50;1.00;;;-0.43;86.77;100563.34;5074697;28;20188;-79
2022/12/10 09:43:24;;;;;;;10.80;7.78;;;-0.40;1.00;;;-0.46;86.28;100555.66;5059292;28;20258;-78
2022/12/10 09:46:12;;;;;;;18.20;12.25;;;-0.30;1.00;;;-0.65;86.46;100552.97;5060322;28;20271;-80
2022/12/10 09:49:04;;;;;;;11.98;8.80;;;-0.40;1.00;;;-0.58;87.41;100553.28;5062845;28;20572;-79
2022/12/10 09:58:28;;;;;;;11.73;9.57;;;-0.40;1.00;;;-0.54;87.77;100555.50;5003705;28;20201;-80
2022/12/10 10:01:02;;;;;;;12.15;8.88;;;-0.40;1.00;;;-0.54;87.55;100555.50;5061600;28;20243;-79
2022/12/10 10:06:47;;;;;;;19.42;12.77;;;-0.30;1.00;;;-0.52;87.00;100545.56;5073966;28;20265;-79
2022/12/10 10:09:18;;;;;;;15.23;11.55;;;-0.30;1.00;;;-0.50;87.29;100550.75;5061485;28;20162;-79
2022/12/10 10:11:49;;;;;;;13.52;10.00;;;-0.40;1.00;;;-0.43;87.36;100552.69;5059917;28;20217;-80
2022/12/10 10:14:29;;;;;;;11.65;9.88;;;-0.30;1.00;;;-0.41;87.06;100549.06;5064023;28;20223;-79
2022/12/10 10:17:08;;;;;;;24.77;11.88;;;-0.30;1.00;;;-0.47;87.80;100553.97;5064347;28;20689;-79
2022/12/10 10:19:41;;;;;;;21.98;10.38;;;-0.30;1.00;;;-0.43;87.66;100557.16;5059573;28;20189;-79
2022/12/10 10:22:15;;;;;;;52.10;32.70;;;-0.30;1.00;;;-0.48;87.39;100559.41;5059918;28;20722;-79
2022/12/10 10:24:47;;;;;;;15.82;12.50;;;-0.30;1.00;;;-0.52;87.82;100556.19;5060757;28;20188;-79
2022/12/10 10:27:21;;;;;;;19.60;13.23;;;-0.30;1.00;;;-0.55;87.75;100568.94;5059880;28;20173;-79
2022/12/10 10:29:54;;;;;;;39.58;30.98;;;-0.30;1.00;;;-0.40;87.75;100561.38;5061036;28;20184;-79
2022/12/10 10:32:47;;;;;;;20.90;13.95;;;-0.30;1.00;;;-0.45;88.55;100560.00;5062243;28;20250;-80
2022/12/10 10:35:30;;;;;;;20.50;15.77;;;-0.30;1.00;;;-0.22;87.92;100554.38;5061975;28;20267;-80
2022/12/10 10:38:16;;;;;;;11.75;7.82;;;-0.20;1.00;;;-0.31;88.57;100552.56;5061522;28;20267;-80
2022/12/10 10:40:49;;;;;;;13.07;9.02;;;-0.30;1.00;;;-0.24;87.44;100546.53;5068077;28;20181;-79
2022/12/10 10:43:24;;;;;;;20.10;14.77;;;-0.10;1.00;;;-0.44;87.60;100545.69;5067244;28;20208;-79
2022/12/10 10:46:00;;;;;;;13.40;8.50;;;-0.20;1.00;;;-0.40;87.78;100535.66;5065374;28;20172;-80
2022/12/10 10:48:30;;;;;;;11.45;8.55;;;-0.20;1.00;;;-0.22;87.81;100538.41;5066560;28;20184;-79
2022/12/10 10:51:10;;;;;;;9.50;7.40;;;-0.20;1.00;;;-0.37;87.32;100539.81;5062170;28;20232;-77
2022/12/10 10:53:46;;;;;;;12.93;10.07;;;-0.10;1.00;;;-0.37;87.90;100539.81;5057019;28;20222;-77
2022/12/10 10:56:20;;;;;;;11.85;9.63;;;-0.10;1.00;;;-0.41;88.10;100527.78;5058375;28;20188;-78
2022/12/10 10:58:58;;;;;;;10.18;7.70;;;-0.20;1.00;;;-0.36;89.02;100531.72;5056854;28;20180;-77
2022/12/10 11:01:45;;;;;;;13.75;8.82;;;-0.20;1.00;;;-0.24;88.10;100532.41;5054543;28;20187;-77
2022/12/10 11:04:16;;;;;;;18.27;8.93;;;-0.20;1.00;;;-0.27;87.99;100528.22;5057695;28;20184;-77
2022/12/10 11:06:57;;;;;;;12.20;7.85;;;-0.20;1.00;;;-0.45;88.17;100527.25;5059128;28;20255;-77
2022/12/10 11:09:32;;;;;;;13.35;7.32;;;-0.30;1.00;;;-0.47;88.97;100514.09;5059136;28;20176;-76